sensor_id;sensor_type;location;lat;lon;timestamp;P1;durP1;ratioP1;P2;durP2;ratioP2
17917;SDS011;9084;50.956;3.106;2023-03-21T00:02:13;6.30;;;5.00;;
17917;SDS011;9084;50.956;3.106;2023-03-21T00:04:38;8.88;;;4.45;;
17917;SDS011;9084;50.956;3.106;2023-03-21T00:07:09;6.60;;;5.45;;
17917;SDS011;9084;50.956;3.106;2023-03-21T00:09:35;5.95;;;4.72;;
17917;SDS011;9084;50.956;3.106;2023-03-21T00:12:00;6.38;;;4.65;;
17917;SDS011;9084;50.956;3.106;2023-03-21T00:14:33;5.43;;;4.93;;
17917;SDS011;9084;50.956;3.106;2023-03-21T00:17:02;5.40;;;4.35;;
17917;SDS011;9084;50.956;3.106;2023-03-21T00:19:28;9.77;;;4.97;;
17917;SDS011;9084;50.956;3.106;2023-03-21T00:21:54;9.10;;;5.15;;
17917;SDS011;9084;50.956;3.106;2023-03-21T00:24:20;6.22;;;5.45;;
17917;SDS011;9084;50.956;3.106;2023-03-21T00:26:47;8.77;;;5.38;;
17917;SDS011;9084;50.956;3.106;2023-03-21T00:29:13;9.13;;;5.63;;
17917;SDS011;9084;50.956;3.106;2023-03-21T00:31:41;8.70;;;5.63;;
17917;SDS011;9084;50.956;3.106;2023-03-21T00:34:07;7.40;;;5.25;;
17917;SDS011;9084;50.956;3.106;2023-03-21T00:36:35;6.68;;;5.18;;
17917;SDS011;9084;50.956;3.106;2023-03-21T00:39:01;7.30;;;5.07;;
17917;SDS011;9084;50.956;3.106;2023-03-21T00:41:27;4.97;;;4.40;;
17917;SDS011;9084;50.956;3.106;2023-03-21T00:44:00;6.80;;;5.25;;
17917;SDS011;9084;50.956;3.106;2023-03-21T00:46:26;6.40;;;5.07;;
17917;SDS011;9084;50.956;3.106;2023-03-21T00:48:53;6.93;;;5.10;;
17917;SDS011;9084;50.956;3.106;2023-03-21T00:51:20;7.55;;;5.05;;
17917;SDS011;9084;50.956;3.106;2023-03-21T00:53:51;7.00;;;5.30;;
17917;SDS011;9084;50.956;3.106;2023-03-21T00:56:22;8.50;;;5.63;;
17917;SDS011;9084;50.956;3.106;2023-03-21T00:58:51;5.30;;;4.75;;
17917;SDS011;9084;50.956;3.106;2023-03-21T01:01:19;7.75;;;5.28;;
17917;SDS011;9084;50.956;3.106;2023-03-21T01:03:46;6.70;;;5.03;;
17917;SDS011;9084;50.956;3.106;2023-03-21T01:06:29;6.75;;;4.70;;
17917;SDS011;9084;50.956;3.106;2023-03-21T01:08:56;7.07;;;4.85;;
17917;SDS011;9084;50.956;3.106;2023-03-21T01:11:23;6.75;;;4.72;;
17917;SDS011;9084;50.956;3.106;2023-03-21T01:13:53;6.10;;;5.13;;
17917;SDS011;9084;50.956;3.106;2023-03-21T01:16:19;6.72;;;5.13;;
17917;SDS011;9084;50.956;3.106;2023-03-21T01:18:47;7.25;;;5.72;;
17917;SDS011;9084;50.956;3.106;2023-03-21T01:21:13;8.90;;;4.78;;
17917;SDS011;9084;50.956;3.106;2023-03-21T01:23:39;5.93;;;5.32;;
17917;SDS011;9084;50.956;3.106;2023-03-21T01:26:09;6.45;;;5.50;;
17917;SDS011;9084;50.956;3.106;2023-03-21T01:28:36;7.03;;;5.22;;
17917;SDS011;9084;50.956;3.106;2023-03-21T01:31:03;7.57;;;5.22;;
17917;SDS011;9084;50.956;3.106;2023-03-21T01:33:30;7.10;;;5.75;;
17917;SDS011;9084;50.956;3.106;2023-03-21T01:35:57;7.55;;;5.57;;
17917;SDS011;9084;50.956;3.106;2023-03-21T01:38:23;10.02;;;6.05;;
17917;SDS011;9084;50.956;3.106;2023-03-21T01:40:52;6.93;;;5.63;;
17917;SDS011;9084;50.956;3.106;2023-03-21T01:43:25;6.65;;;5.47;;
17917;SDS011;9084;50.956;3.106;2023-03-21T01:48:37;6.32;;;5.68;;
17917;SDS011;9084;50.956;3.106;2023-03-21T01:51:05;6.97;;;5.55;;
17917;SDS011;9084;50.956;3.106;2023-03-21T01:53:33;6.45;;;5.15;;
17917;SDS011;9084;50.956;3.106;2023-03-21T01:56:07;9.55;;;6.15;;
17917;SDS011;9084;50.956;3.106;2023-03-21T01:58:42;8.55;;;6.72;;
17917;SDS011;9084;50.956;3.106;2023-03-21T02:01:13;6.22;;;5.13;;
17917;SDS011;9084;50.956;3.106;2023-03-21T02:03:45;6.00;;;5.38;;
17917;SDS011;9084;50.956;3.106;2023-03-21T02:09:03;8.63;;;4.82;;
17917;SDS011;9084;50.956;3.106;2023-03-21T02:11:35;6.10;;;5.07;;
17917;SDS011;9084;50.956;3.106;2023-03-21T02:14:03;6.68;;;5.35;;
17917;SDS011;9084;50.956;3.106;2023-03-21T02:27:17;6.93;;;4.72;;
17917;SDS011;9084;50.956;3.106;2023-03-21T02:32:53;5.13;;;4.28;;
17917;SDS011;9084;50.956;3.106;2023-03-21T02:35:58;5.78;;;4.45;;
17917;SDS011;9084;50.956;3.106;2023-03-21T02:41:15;8.85;;;5.15;;
17917;SDS011;9084;50.956;3.106;2023-03-21T02:43:56;6.80;;;4.95;;
17917;SDS011;9084;50.956;3.106;2023-03-21T02:49:10;4.55;;;3.90;;
17917;SDS011;9084;50.956;3.106;2023-03-21T02:51:42;6.22;;;3.97;;
17917;SDS011;9084;50.956;3.106;2023-03-21T02:54:14;8.82;;;4.43;;
17917;SDS011;9084;50.956;3.106;2023-03-21T02:56:42;7.25;;;4.63;;
17917;SDS011;9084;50.956;3.106;2023-03-21T02:59:13;5.68;;;4.43;;
17917;SDS011;9084;50.956;3.106;2023-03-21T03:01:41;7.82;;;4.50;;
17917;SDS011;9084;50.956;3.106;2023-03-21T03:04:26;7.38;;;4.88;;
17917;SDS011;9084;50.956;3.106;2023-03-21T03:09:42;5.05;;;3.83;;
17917;SDS011;9084;50.956;3.106;2023-03-21T03:28:37;6.95;;;4.10;;
17917;SDS011;9084;50.956;3.106;2023-03-21T03:31:06;5.25;;;3.85;;
17917;SDS011;9084;50.956;3.106;2023-03-21T03:33:37;6.95;;;3.90;;
17917;SDS011;9084;50.956;3.106;2023-03-21T03:36:10;9.48;;;3.90;;
17917;SDS011;9084;50.956;3.106;2023-03-21T03:38:39;8.13;;;4.68;;
17917;SDS011;9084;50.956;3.106;2023-03-21T03:41:15;8.20;;;3.95;;
17917;SDS011;9084;50.956;3.106;2023-03-21T03:43:47;7.25;;;4.03;;
17917;SDS011;9084;50.956;3.106;2023-03-21T03:47:03;8.43;;;3.83;;
17917;SDS011;9084;50.956;3.106;2023-03-21T03:49:47;6.68;;;3.50;;
17917;SDS011;9084;50.956;3.106;2023-03-21T03:52:24;4.80;;;3.72;;
17917;SDS011;9084;50.956;3.106;2023-03-21T03:54:53;7.07;;;3.72;;
17917;SDS011;9084;50.956;3.106;2023-03-21T03:57:19;9.10;;;4.10;;
17917;SDS011;9084;50.956;3.106;2023-03-21T03:59:47;5.93;;;3.65;;
17917;SDS011;9084;50.956;3.106;2023-03-21T04:02:15;8.18;;;4.18;;
17917;SDS011;9084;50.956;3.106;2023-03-21T04:04:43;9.25;;;4.20;;
17917;SDS011;9084;50.956;3.106;2023-03-21T04:07:19;6.82;;;4.00;;
17917;SDS011;9084;50.956;3.106;2023-03-21T04:09:46;7.63;;;4.05;;
17917;SDS011;9084;50.956;3.106;2023-03-21T04:12:12;5.70;;;3.97;;
17917;SDS011;9084;50.956;3.106;2023-03-21T04:14:38;6.78;;;4.05;;
17917;SDS011;9084;50.956;3.106;2023-03-21T04:17:08;8.80;;;4.10;;
17917;SDS011;9084;50.956;3.106;2023-03-21T04:19:37;6.10;;;3.83;;
17917;SDS011;9084;50.956;3.106;2023-03-21T04:22:03;8.32;;;4.05;;
17917;SDS011;9084;50.956;3.106;2023-03-21T04:24:33;5.18;;;3.85;;
17917;SDS011;9084;50.956;3.106;2023-03-21T04:27:01;5.32;;;3.90;;
17917;SDS011;9084;50.956;3.106;2023-03-21T04:29:29;5.38;;;3.63;;
17917;SDS011;9084;50.956;3.106;2023-03-21T04:31:55;8.77;;;3.70;;
17917;SDS011;9084;50.956;3.106;2023-03-21T04:34:26;5.35;;;3.40;;
17917;SDS011;9084;50.956;3.106;2023-03-21T04:36:54;7.78;;;3.90;;
17917;SDS011;9084;50.956;3.106;2023-03-21T04:39:21;8.23;;;3.55;;
17917;SDS011;9084;50.956;3.106;2023-03-21T04:41:49;7.47;;;4.03;;
17917;SDS011;9084;50.956;3.106;2023-03-21T04:44:17;6.57;;;3.67;;
17917;SDS011;9084;50.956;3.106;2023-03-21T04:46:45;5.60;;;3.53;;
17917;SDS011;9084;50.956;3.106;2023-03-21T04:49:11;5.78;;;4.18;;
17917;SDS011;9084;50.956;3.106;2023-03-21T04:51:37;5.53;;;4.38;;
17917;SDS011;9084;50.956;3.106;2023-03-21T04:54:04;6.30;;;4.28;;
17917;SDS011;9084;50.956;3.106;2023-03-21T04:56:29;5.63;;;4.60;;
17917;SDS011;9084;50.956;3.106;2023-03-21T04:58:57;5.22;;;4.65;;
17917;SDS011;9084;50.956;3.106;2023-03-21T05:01:26;7.55;;;4.47;;
17917;SDS011;9084;50.956;3.106;2023-03-21T05:03:56;7.95;;;4.60;;
17917;SDS011;9084;50.956;3.106;2023-03-21T05:06:23;6.07;;;4.05;;
17917;SDS011;9084;50.956;3.106;2023-03-21T05:08:50;6.20;;;3.90;;
17917;SDS011;9084;50.956;3.106;2023-03-21T05:11:22;8.52;;;4.88;;
17917;SDS011;9084;50.956;3.106;2023-03-21T05:13:50;6.38;;;4.70;;
17917;SDS011;9084;50.956;3.106;2023-03-21T05:16:18;5.97;;;4.32;;
17917;SDS011;9084;50.956;3.106;2023-03-21T05:18:44;8.95;;;4.80;;
17917;SDS011;9084;50.956;3.106;2023-03-21T05:21:14;6.53;;;4.32;;
17917;SDS011;9084;50.956;3.106;2023-03-21T05:23:43;6.57;;;4.50;;
17917;SDS011;9084;50.956;3.106;2023-03-21T05:26:18;8.05;;;5.30;;
17917;SDS011;9084;50.956;3.106;2023-03-21T05:28:45;7.10;;;5.00;;
17917;SDS011;9084;50.956;3.106;2023-03-21T05:31:16;8.35;;;5.25;;
17917;SDS011;9084;50.956;3.106;2023-03-21T05:33:43;7.97;;;4.65;;
17917;SDS011;9084;50.956;3.106;2023-03-21T05:36:09;10.15;;;6.47;;
17917;SDS011;9084;50.956;3.106;2023-03-21T05:38:38;6.05;;;4.85;;
17917;SDS011;9084;50.956;3.106;2023-03-21T05:41:10;8.30;;;5.65;;
17917;SDS011;9084;50.956;3.106;2023-03-21T05:43:42;8.68;;;6.00;;
17917;SDS011;9084;50.956;3.106;2023-03-21T05:46:10;10.52;;;5.82;;
17917;SDS011;9084;50.956;3.106;2023-03-21T05:48:36;9.10;;;6.07;;
17917;SDS011;9084;50.956;3.106;2023-03-21T05:51:02;8.88;;;5.97;;
17917;SDS011;9084;50.956;3.106;2023-03-21T05:53:28;7.82;;;5.53;;
17917;SDS011;9084;50.956;3.106;2023-03-21T05:55:56;9.65;;;6.55;;
17917;SDS011;9084;50.956;3.106;2023-03-21T05:58:24;7.85;;;6.75;;
17917;SDS011;9084;50.956;3.106;2023-03-21T06:00:52;8.43;;;6.32;;
17917;SDS011;9084;50.956;3.106;2023-03-21T06:03:21;9.07;;;6.80;;
17917;SDS011;9084;50.956;3.106;2023-03-21T06:05:46;10.52;;;5.85;;
17917;SDS011;9084;50.956;3.106;2023-03-21T06:08:12;9.18;;;6.72;;
17917;SDS011;9084;50.956;3.106;2023-03-21T06:10:40;11.13;;;6.40;;
17917;SDS011;9084;50.956;3.106;2023-03-21T06:13:06;12.20;;;6.45;;
17917;SDS011;9084;50.956;3.106;2023-03-21T06:15:32;8.63;;;6.72;;
17917;SDS011;9084;50.956;3.106;2023-03-21T06:17:57;10.75;;;6.15;;
17917;SDS011;9084;50.956;3.106;2023-03-21T06:20:23;11.23;;;7.30;;
17917;SDS011;9084;50.956;3.106;2023-03-21T06:22:49;11.93;;;7.50;;
17917;SDS011;9084;50.956;3.106;2023-03-21T06:25:15;8.35;;;6.72;;
17917;SDS011;9084;50.956;3.106;2023-03-21T06:27:45;10.13;;;6.55;;
17917;SDS011;9084;50.956;3.106;2023-03-21T06:30:11;9.32;;;6.95;;
17917;SDS011;9084;50.956;3.106;2023-03-21T06:32:40;12.70;;;7.78;;
17917;SDS011;9084;50.956;3.106;2023-03-21T06:35:08;9.38;;;7.07;;
17917;SDS011;9084;50.956;3.106;2023-03-21T06:37:34;8.00;;;6.55;;
17917;SDS011;9084;50.956;3.106;2023-03-21T06:40:02;7.85;;;6.57;;
17917;SDS011;9084;50.956;3.106;2023-03-21T06:42:29;9.63;;;7.45;;
17917;SDS011;9084;50.956;3.106;2023-03-21T06:44:56;7.20;;;6.40;;
17917;SDS011;9084;50.956;3.106;2023-03-21T06:47:22;12.07;;;6.70;;
17917;SDS011;9084;50.956;3.106;2023-03-21T06:49:50;9.30;;;6.00;;
17917;SDS011;9084;50.956;3.106;2023-03-21T06:52:18;9.88;;;6.70;;
17917;SDS011;9084;50.956;3.106;2023-03-21T06:54:43;7.72;;;6.38;;
17917;SDS011;9084;50.956;3.106;2023-03-21T06:57:09;7.72;;;6.30;;
17917;SDS011;9084;50.956;3.106;2023-03-21T06:59:37;11.07;;;6.22;;
17917;SDS011;9084;50.956;3.106;2023-03-21T07:02:08;11.73;;;6.63;;
17917;SDS011;9084;50.956;3.106;2023-03-21T07:04:34;8.70;;;6.05;;
17917;SDS011;9084;50.956;3.106;2023-03-21T07:07:00;9.50;;;6.60;;
17917;SDS011;9084;50.956;3.106;2023-03-21T07:09:26;9.82;;;6.78;;
17917;SDS011;9084;50.956;3.106;2023-03-21T07:11:52;8.73;;;6.22;;
17917;SDS011;9084;50.956;3.106;2023-03-21T07:14:18;9.57;;;6.25;;
17917;SDS011;9084;50.956;3.106;2023-03-21T07:16:47;8.20;;;6.43;;
17917;SDS011;9084;50.956;3.106;2023-03-21T07:19:13;8.20;;;7.13;;
17917;SDS011;9084;50.956;3.106;2023-03-21T07:21:39;11.73;;;6.45;;
17917;SDS011;9084;50.956;3.106;2023-03-21T07:24:07;9.35;;;7.05;;
17917;SDS011;9084;50.956;3.106;2023-03-21T07:26:35;8.43;;;6.55;;
17917;SDS011;9084;50.956;3.106;2023-03-21T07:29:01;7.28;;;6.15;;
17917;SDS011;9084;50.956;3.106;2023-03-21T07:31:27;9.10;;;6.60;;
17917;SDS011;9084;50.956;3.106;2023-03-21T07:33:53;8.30;;;6.13;;
17917;SDS011;9084;50.956;3.106;2023-03-21T07:36:21;7.32;;;6.22;;
17917;SDS011;9084;50.956;3.106;2023-03-21T07:38:47;6.53;;;5.85;;
17917;SDS011;9084;50.956;3.106;2023-03-21T07:41:15;7.68;;;6.07;;
17917;SDS011;9084;50.956;3.106;2023-03-21T07:43:41;7.28;;;5.82;;
17917;SDS011;9084;50.956;3.106;2023-03-21T07:46:06;9.80;;;6.22;;
17917;SDS011;9084;50.956;3.106;2023-03-21T07:48:32;9.95;;;5.75;;
17917;SDS011;9084;50.956;3.106;2023-03-21T07:50:58;6.40;;;5.68;;
17917;SDS011;9084;50.956;3.106;2023-03-21T07:53:26;7.45;;;5.60;;
17917;SDS011;9084;50.956;3.106;2023-03-21T07:55:56;10.52;;;6.38;;
17917;SDS011;9084;50.956;3.106;2023-03-21T07:58:23;6.95;;;5.43;;
17917;SDS011;9084;50.956;3.106;2023-03-21T08:00:50;8.43;;;5.43;;
17917;SDS011;9084;50.956;3.106;2023-03-21T08:03:16;7.68;;;4.70;;
17917;SDS011;9084;50.956;3.106;2023-03-21T08:05:44;6.85;;;5.00;;
17917;SDS011;9084;50.956;3.106;2023-03-21T08:08:10;6.30;;;5.00;;
17917;SDS011;9084;50.956;3.106;2023-03-21T08:10:39;6.00;;;5.20;;
17917;SDS011;9084;50.956;3.106;2023-03-21T08:13:07;6.03;;;4.70;;
17917;SDS011;9084;50.956;3.106;2023-03-21T08:15:35;4.93;;;4.40;;
17917;SDS011;9084;50.956;3.106;2023-03-21T08:18:01;9.18;;;5.07;;
17917;SDS011;9084;50.956;3.106;2023-03-21T08:20:27;9.98;;;5.57;;
17917;SDS011;9084;50.956;3.106;2023-03-21T08:22:53;8.80;;;5.88;;
17917;SDS011;9084;50.956;3.106;2023-03-21T08:25:19;7.70;;;5.20;;
17917;SDS011;9084;50.956;3.106;2023-03-21T08:27:46;6.32;;;4.85;;
17917;SDS011;9084;50.956;3.106;2023-03-21T08:30:14;7.65;;;5.32;;
17917;SDS011;9084;50.956;3.106;2023-03-21T08:32:41;8.05;;;5.25;;
17917;SDS011;9084;50.956;3.106;2023-03-21T08:35:08;6.30;;;5.07;;
17917;SDS011;9084;50.956;3.106;2023-03-21T08:37:35;10.82;;;4.85;;
17917;SDS011;9084;50.956;3.106;2023-03-21T08:40:05;11.43;;;4.65;;
17917;SDS011;9084;50.956;3.106;2023-03-21T08:42:37;7.95;;;4.88;;
17917;SDS011;9084;50.956;3.106;2023-03-21T08:45:09;6.80;;;4.90;;
17917;SDS011;9084;50.956;3.106;2023-03-21T08:47:36;8.75;;;4.90;;
17917;SDS011;9084;50.956;3.106;2023-03-21T08:50:03;6.57;;;4.38;;
17917;SDS011;9084;50.956;3.106;2023-03-21T08:52:30;8.80;;;4.90;;
17917;SDS011;9084;50.956;3.106;2023-03-21T08:54:56;6.55;;;4.30;;
17917;SDS011;9084;50.956;3.106;2023-03-21T08:57:26;6.10;;;4.15;;
17917;SDS011;9084;50.956;3.106;2023-03-21T08:59:52;6.68;;;4.03;;
17917;SDS011;9084;50.956;3.106;2023-03-21T09:02:18;6.05;;;4.28;;
17917;SDS011;9084;50.956;3.106;2023-03-21T09:04:46;6.60;;;4.22;;
17917;SDS011;9084;50.956;3.106;2023-03-21T09:07:12;8.25;;;4.00;;
17917;SDS011;9084;50.956;3.106;2023-03-21T09:09:42;6.28;;;4.43;;
17917;SDS011;9084;50.956;3.106;2023-03-21T09:12:07;5.70;;;3.70;;
17917;SDS011;9084;50.956;3.106;2023-03-21T09:14:33;6.07;;;4.45;;
17917;SDS011;9084;50.956;3.106;2023-03-21T09:16:59;5.60;;;4.10;;
17917;SDS011;9084;50.956;3.106;2023-03-21T09:19:25;6.82;;;4.07;;
17917;SDS011;9084;50.956;3.106;2023-03-21T09:21:54;7.85;;;4.50;;
17917;SDS011;9084;50.956;3.106;2023-03-21T09:24:21;8.65;;;4.65;;
17917;SDS011;9084;50.956;3.106;2023-03-21T09:26:47;9.15;;;4.60;;
17917;SDS011;9084;50.956;3.106;2023-03-21T09:29:16;9.00;;;4.88;;
17917;SDS011;9084;50.956;3.106;2023-03-21T09:31:45;8.85;;;4.78;;
17917;SDS011;9084;50.956;3.106;2023-03-21T09:34:12;6.03;;;4.55;;
17917;SDS011;9084;50.956;3.106;2023-03-21T09:36:40;8.75;;;4.50;;
17917;SDS011;9084;50.956;3.106;2023-03-21T09:39:08;4.72;;;3.67;;
17917;SDS011;9084;50.956;3.106;2023-03-21T09:47:04;7.10;;;4.28;;
17917;SDS011;9084;50.956;3.106;2023-03-21T09:49:39;6.60;;;3.30;;
17917;SDS011;9084;50.956;3.106;2023-03-21T09:52:15;5.78;;;3.85;;
17917;SDS011;9084;50.956;3.106;2023-03-21T09:54:49;4.32;;;3.20;;
17917;SDS011;9084;50.956;3.106;2023-03-21T09:59:55;5.10;;;3.40;;
17917;SDS011;9084;50.956;3.106;2023-03-21T10:02:40;3.80;;;2.47;;
17917;SDS011;9084;50.956;3.106;2023-03-21T10:05:22;5.90;;;2.42;;
17917;SDS011;9084;50.956;3.106;2023-03-21T10:07:53;4.20;;;2.83;;
17917;SDS011;9084;50.956;3.106;2023-03-21T10:10:26;4.10;;;2.72;;
17917;SDS011;9084;50.956;3.106;2023-03-21T10:12:57;7.38;;;2.80;;
17917;SDS011;9084;50.956;3.106;2023-03-21T10:15:25;6.72;;;2.70;;
17917;SDS011;9084;50.956;3.106;2023-03-21T10:17:56;6.95;;;3.03;;
17917;SDS011;9084;50.956;3.106;2023-03-21T10:20:48;5.03;;;2.50;;
17917;SDS011;9084;50.956;3.106;2023-03-21T10:23:18;2.92;;;2.25;;
17917;SDS011;9084;50.956;3.106;2023-03-21T10:25:51;5.45;;;2.83;;
17917;SDS011;9084;50.956;3.106;2023-03-21T10:28:23;6.45;;;2.90;;
17917;SDS011;9084;50.956;3.106;2023-03-21T10:31:00;5.32;;;2.15;;
17917;SDS011;9084;50.956;3.106;2023-03-21T10:33:31;4.72;;;2.80;;
17917;SDS011;9084;50.956;3.106;2023-03-21T10:36:04;3.53;;;2.42;;
17917;SDS011;9084;50.956;3.106;2023-03-21T10:38:33;5.00;;;2.30;;
17917;SDS011;9084;50.956;3.106;2023-03-21T10:41:02;4.47;;;3.00;;
17917;SDS011;9084;50.956;3.106;2023-03-21T10:43:30;6.80;;;2.38;;
17917;SDS011;9084;50.956;3.106;2023-03-21T10:46:35;4.32;;;2.58;;
17917;SDS011;9084;50.956;3.106;2023-03-21T10:48:53;5.00;;;2.58;;
17917;SDS011;9084;50.956;3.106;2023-03-21T10:51:22;4.47;;;2.63;;
17917;SDS011;9084;50.956;3.106;2023-03-21T10:53:53;5.00;;;2.85;;
17917;SDS011;9084;50.956;3.106;2023-03-21T10:56:26;3.78;;;2.60;;
17917;SDS011;9084;50.956;3.106;2023-03-21T10:58:55;5.90;;;3.40;;
17917;SDS011;9084;50.956;3.106;2023-03-21T11:01:45;3.47;;;2.50;;
17917;SDS011;9084;50.956;3.106;2023-03-21T11:04:15;3.55;;;2.78;;
17917;SDS011;9084;50.956;3.106;2023-03-21T11:06:44;4.15;;;2.45;;
17917;SDS011;9084;50.956;3.106;2023-03-21T11:09:19;3.95;;;3.17;;
17917;SDS011;9084;50.956;3.106;2023-03-21T11:14:44;5.25;;;2.92;;
17917;SDS011;9084;50.956;3.106;2023-03-21T11:19:53;5.28;;;2.97;;
17917;SDS011;9084;50.956;3.106;2023-03-21T11:22:24;4.90;;;2.95;;
17917;SDS011;9084;50.956;3.106;2023-03-21T11:24:55;6.60;;;3.05;;
17917;SDS011;9084;50.956;3.106;2023-03-21T11:27:26;4.93;;;3.38;;
17917;SDS011;9084;50.956;3.106;2023-03-21T11:29:53;4.18;;;3.00;;
17917;SDS011;9084;50.956;3.106;2023-03-21T11:32:24;3.85;;;2.72;;
17917;SDS011;9084;50.956;3.106;2023-03-21T11:38:23;4.53;;;3.30;;
17917;SDS011;9084;50.956;3.106;2023-03-21T11:40:55;5.00;;;3.25;;
17917;SDS011;9084;50.956;3.106;2023-03-21T11:56:42;4.18;;;2.35;;
17917;SDS011;9084;50.956;3.106;2023-03-21T12:21:17;3.78;;;2.70;;
17917;SDS011;9084;50.956;3.106;2023-03-21T12:23:51;3.58;;;2.15;;
17917;SDS011;9084;50.956;3.106;2023-03-21T12:29:58;1.60;;;1.50;;
17917;SDS011;9084;50.956;3.106;2023-03-21T12:37:40;5.28;;;1.50;;
17917;SDS011;9084;50.956;3.106;2023-03-21T12:51:31;1.85;;;1.27;;
17917;SDS011;9084;50.956;3.106;2023-03-21T13:02:28;1.17;;;1.10;;
17917;SDS011;9084;50.956;3.106;2023-03-21T13:05:58;1.35;;;0.95;;
17917;SDS011;9084;50.956;3.106;2023-03-21T13:08:00;1.50;;;1.02;;
17917;SDS011;9084;50.956;3.106;2023-03-21T13:10:37;2.53;;;1.23;;
17917;SDS011;9084;50.956;3.106;2023-03-21T13:24:41;2.22;;;1.30;;
17917;SDS011;9084;50.956;3.106;2023-03-21T13:38:20;1.58;;;1.30;;
17917;SDS011;9084;50.956;3.106;2023-03-21T13:40:48;3.50;;;1.40;;
17917;SDS011;9084;50.956;3.106;2023-03-21T13:59:16;2.88;;;1.10;;
17917;SDS011;9084;50.956;3.106;2023-03-21T14:04:52;1.80;;;1.02;;
17917;SDS011;9084;50.956;3.106;2023-03-21T14:07:35;1.80;;;1.00;;
17917;SDS011;9084;50.956;3.106;2023-03-21T14:10:05;2.35;;;1.30;;
17917;SDS011;9084;50.956;3.106;2023-03-21T14:12:42;1.92;;;1.30;;
17917;SDS011;9084;50.956;3.106;2023-03-21T14:15:18;1.83;;;1.60;;
17917;SDS011;9084;50.956;3.106;2023-03-21T14:17:51;1.52;;;0.90;;
17917;SDS011;9084;50.956;3.106;2023-03-21T14:20:21;2.92;;;1.40;;
17917;SDS011;9084;50.956;3.106;2023-03-21T14:22:50;2.75;;;1.23;;
17917;SDS011;9084;50.956;3.106;2023-03-21T14:25:17;3.03;;;2.78;;
17917;SDS011;9084;50.956;3.106;2023-03-21T14:27:48;2.72;;;1.67;;
17917;SDS011;9084;50.956;3.106;2023-03-21T14:30:21;3.30;;;1.70;;
17917;SDS011;9084;50.956;3.106;2023-03-21T14:32:51;2.90;;;1.98;;
17917;SDS011;9084;50.956;3.106;2023-03-21T14:35:19;5.70;;;3.38;;
17917;SDS011;9084;50.956;3.106;2023-03-21T14:37:50;2.90;;;2.28;;
17917;SDS011;9084;50.956;3.106;2023-03-21T14:40:21;1.63;;;1.10;;
17917;SDS011;9084;50.956;3.106;2023-03-21T14:42:49;2.33;;;1.02;;
17917;SDS011;9084;50.956;3.106;2023-03-21T14:45:22;3.17;;;1.23;;
17917;SDS011;9084;50.956;3.106;2023-03-21T14:47:57;2.75;;;1.10;;
17917;SDS011;9084;50.956;3.106;2023-03-21T14:50:27;2.35;;;1.10;;
17917;SDS011;9084;50.956;3.106;2023-03-21T14:56:02;1.65;;;0.88;;
17917;SDS011;9084;50.956;3.106;2023-03-21T14:58:31;3.13;;;1.15;;
17917;SDS011;9084;50.956;3.106;2023-03-21T15:01:01;2.75;;;1.00;;
17917;SDS011;9084;50.956;3.106;2023-03-21T15:03:30;2.83;;;1.00;;
17917;SDS011;9084;50.956;3.106;2023-03-21T15:06:00;3.47;;;0.95;;
17917;SDS011;9084;50.956;3.106;2023-03-21T15:08:27;3.53;;;0.90;;
17917;SDS011;9084;50.956;3.106;2023-03-21T15:11:00;3.00;;;1.00;;
17917;SDS011;9084;50.956;3.106;2023-03-21T15:13:29;2.78;;;1.30;;
17917;SDS011;9084;50.956;3.106;2023-03-21T15:15:58;4.70;;;2.25;;
17917;SDS011;9084;50.956;3.106;2023-03-21T15:18:31;2.65;;;1.30;;
17917;SDS011;9084;50.956;3.106;2023-03-21T15:21:04;4.30;;;2.65;;
17917;SDS011;9084;50.956;3.106;2023-03-21T15:23:39;5.13;;;2.85;;
17917;SDS011;9084;50.956;3.106;2023-03-21T15:26:13;3.25;;;2.65;;
17917;SDS011;9084;50.956;3.106;2023-03-21T15:28:44;2.03;;;1.83;;
17917;SDS011;9084;50.956;3.106;2023-03-21T15:31:18;4.22;;;2.05;;
17917;SDS011;9084;50.956;3.106;2023-03-21T15:33:49;4.53;;;3.20;;
17917;SDS011;9084;50.956;3.106;2023-03-21T15:36:20;4.45;;;2.85;;
17917;SDS011;9084;50.956;3.106;2023-03-21T15:38:51;4.35;;;3.80;;
17917;SDS011;9084;50.956;3.106;2023-03-21T15:43:43;3.28;;;2.97;;
17917;SDS011;9084;50.956;3.106;2023-03-21T15:46:17;2.70;;;2.42;;
17917;SDS011;9084;50.956;3.106;2023-03-21T15:49:06;6.32;;;4.50;;
17917;SDS011;9084;50.956;3.106;2023-03-21T15:51:59;3.58;;;3.20;;
17917;SDS011;9084;50.956;3.106;2023-03-21T15:57:02;3.90;;;2.72;;
17917;SDS011;9084;50.956;3.106;2023-03-21T15:59:34;1.50;;;0.98;;
17917;SDS011;9084;50.956;3.106;2023-03-21T16:02:09;2.45;;;1.30;;
17917;SDS011;9084;50.956;3.106;2023-03-21T16:08:03;1.83;;;1.50;;
17917;SDS011;9084;50.956;3.106;2023-03-21T16:13:00;1.27;;;0.68;;
17917;SDS011;9084;50.956;3.106;2023-03-21T16:15:26;2.58;;;1.02;;
17917;SDS011;9084;50.956;3.106;2023-03-21T16:17:55;1.45;;;0.80;;
17917;SDS011;9084;50.956;3.106;2023-03-21T16:20:26;1.80;;;0.75;;
17917;SDS011;9084;50.956;3.106;2023-03-21T16:22:56;2.20;;;1.00;;
17917;SDS011;9084;50.956;3.106;2023-03-21T16:25:22;2.08;;;0.93;;
17917;SDS011;9084;50.956;3.106;2023-03-21T16:27:49;1.65;;;0.80;;
17917;SDS011;9084;50.956;3.106;2023-03-21T16:30:19;2.60;;;0.75;;
17917;SDS011;9084;50.956;3.106;2023-03-21T16:32:48;1.52;;;0.80;;
17917;SDS011;9084;50.956;3.106;2023-03-21T16:35:16;2.45;;;0.90;;
17917;SDS011;9084;50.956;3.106;2023-03-21T16:37:49;3.15;;;0.80;;
17917;SDS011;9084;50.956;3.106;2023-03-21T16:40:16;2.42;;;0.82;;
17917;SDS011;9084;50.956;3.106;2023-03-21T16:42:44;4.28;;;1.25;;
17917;SDS011;9084;50.956;3.106;2023-03-21T16:45:12;2.42;;;0.82;;
17917;SDS011;9084;50.956;3.106;2023-03-21T16:47:40;4.43;;;1.13;;
17917;SDS011;9084;50.956;3.106;2023-03-21T16:50:12;2.20;;;1.25;;
17917;SDS011;9084;50.956;3.106;2023-03-21T16:52:45;3.13;;;1.40;;
17917;SDS011;9084;50.956;3.106;2023-03-21T16:55:14;1.77;;;0.80;;
17917;SDS011;9084;50.956;3.106;2023-03-21T16:57:40;2.38;;;0.80;;
17917;SDS011;9084;50.956;3.106;2023-03-21T17:00:06;3.38;;;0.65;;
17917;SDS011;9084;50.956;3.106;2023-03-21T17:02:39;1.55;;;0.68;;
17917;SDS011;9084;50.956;3.106;2023-03-21T17:05:07;3.13;;;1.08;;
17917;SDS011;9084;50.956;3.106;2023-03-21T17:07:38;1.63;;;0.90;;
17917;SDS011;9084;50.956;3.106;2023-03-21T17:10:11;3.85;;;0.73;;
17917;SDS011;9084;50.956;3.106;2023-03-21T17:12:42;2.72;;;0.80;;
17917;SDS011;9084;50.956;3.106;2023-03-21T17:15:08;8.95;;;4.82;;
17917;SDS011;9084;50.956;3.106;2023-03-21T17:17:37;5.18;;;3.28;;
17917;SDS011;9084;50.956;3.106;2023-03-21T17:20:25;3.00;;;1.10;;
17917;SDS011;9084;50.956;3.106;2023-03-21T17:22:55;4.30;;;1.48;;
17917;SDS011;9084;50.956;3.106;2023-03-21T17:25:21;3.05;;;1.27;;
17917;SDS011;9084;50.956;3.106;2023-03-21T17:27:50;3.55;;;1.60;;
17917;SDS011;9084;50.956;3.106;2023-03-21T17:32:49;3.65;;;1.05;;
17917;SDS011;9084;50.956;3.106;2023-03-21T17:35:16;3.83;;;1.63;;
17917;SDS011;9084;50.956;3.106;2023-03-21T17:37:43;6.95;;;1.65;;
17917;SDS011;9084;50.956;3.106;2023-03-21T17:40:14;3.08;;;1.08;;
17917;SDS011;9084;50.956;3.106;2023-03-21T17:42:50;2.92;;;1.08;;
17917;SDS011;9084;50.956;3.106;2023-03-21T17:45:19;4.80;;;1.50;;
17917;SDS011;9084;50.956;3.106;2023-03-21T17:47:45;4.38;;;1.48;;
17917;SDS011;9084;50.956;3.106;2023-03-21T17:50:17;8.23;;;1.60;;
17917;SDS011;9084;50.956;3.106;2023-03-21T17:52:48;3.97;;;1.55;;
17917;SDS011;9084;50.956;3.106;2023-03-21T17:55:14;4.18;;;1.45;;
17917;SDS011;9084;50.956;3.106;2023-03-21T17:57:43;5.05;;;2.15;;
17917;SDS011;9084;50.956;3.106;2023-03-21T18:00:13;5.15;;;1.38;;
17917;SDS011;9084;50.956;3.106;2023-03-21T18:02:47;7.75;;;2.17;;
17917;SDS011;9084;50.956;3.106;2023-03-21T18:05:13;7.78;;;1.88;;
17917;SDS011;9084;50.956;3.106;2023-03-21T18:07:39;16.05;;;4.25;;
17917;SDS011;9084;50.956;3.106;2023-03-21T18:10:15;6.13;;;2.83;;
17917;SDS011;9084;50.956;3.106;2023-03-21T18:12:48;4.72;;;1.80;;
17917;SDS011;9084;50.956;3.106;2023-03-21T18:15:17;6.75;;;1.90;;
17917;SDS011;9084;50.956;3.106;2023-03-21T18:17:43;4.55;;;1.70;;
17917;SDS011;9084;50.956;3.106;2023-03-21T18:20:14;4.93;;;1.95;;